Time;durP1;ratioP1;P1;durP2;ratioP2;P2;SDS_P1;SDS_P2;PMS_P1;PMS_P2;Temp;Humidity;BMP_temperature;BMP_pressure;BME280_temperature;BME280_humidity;BME280_pressure;Samples;Min_cycle;Max_cycle;Signal;HPM_P1;HPM_P2
2022/04/23 00:01:39;;;;;;;;;20.50;17.75;;;;;-146.67;100.00;57155.34;5084746;28;61759;-81
2022/04/23 00:04:04;;;;;;;;;2.00;0.00;;;;;-146.67;100.00;57155.34;5084557;28;61981;-81
2022/04/23 00:06:30;;;;;;;;;17.25;12.50;;;;;-146.67;100.00;57155.34;5084528;28;61824;-81
2022/04/23 00:08:55;;;;;;;;;18.25;15.00;;;;;-146.67;100.00;57155.34;5083442;27;62778;-81
2022/04/23 00:11:21;;;;;;;;;28.00;20.75;;;;;-146.67;100.00;57155.34;5084635;28;61828;-81
2022/04/23 00:13:46;;;;;;;;;26.50;23.75;;;;;-146.67;100.00;57155.34;5084333;28;62167;-81
2022/04/23 00:16:14;;;;;;;;;30.50;23.25;;;;;-146.67;100.00;57155.34;5084302;28;61802;-81
2022/04/23 00:18:39;;;;;;;;;23.00;18.75;;;;;-146.67;100.00;57155.34;5083805;28;62501;-81
2022/04/23 00:21:05;;;;;;;;;26.50;21.00;;;;;-146.67;100.00;57155.34;5099946;27;61813;-81
2022/04/23 00:23:31;;;;;;;;;21.75;17.25;;;;;-146.67;100.00;57155.34;5084361;28;62114;-81
2022/04/23 00:25:58;;;;;;;;;21.25;20.25;;;;;-146.67;100.00;57155.34;5084617;28;62126;-81
2022/04/23 00:28:23;;;;;;;;;22.25;19.25;;;;;-146.67;100.00;57155.34;5083423;28;61766;-81
2022/04/23 00:30:49;;;;;;;;;24.00;20.00;;;;;-146.67;100.00;57155.34;5084123;28;61913;-81
2022/04/23 00:33:14;;;;;;;;;23.50;18.00;;;;;-146.67;100.00;57155.34;5084039;28;61907;-81
2022/04/23 00:35:40;;;;;;;;;22.00;18.50;;;;;-146.67;100.00;57155.34;5084284;28;61711;-81
2022/04/23 00:38:07;;;;;;;;;19.00;17.50;;;;;-146.67;100.00;57155.34;5083239;28;63039;-81
2022/04/23 00:40:33;;;;;;;;;19.00;16.25;;;;;-146.67;100.00;57155.34;5084044;28;61828;-81
2022/04/23 00:42:58;;;;;;;;;18.25;14.50;;;;;-146.67;100.00;57155.34;5099551;27;61876;-81
2022/04/23 00:45:27;;;;;;;;;20.00;15.75;;;;;-146.67;100.00;57155.34;5099870;27;62189;-81
2022/04/23 00:47:54;;;;;;;;;18.00;18.00;;;;;-146.67;100.00;57155.34;5083354;28;62265;-81
2022/04/23 00:50:21;;;;;;;;;16.75;12.00;;;;;-146.67;100.00;57155.34;5083752;28;62106;-81
2022/04/23 00:52:56;;;;;;;;;23.75;15.25;;;;;-146.67;100.00;57155.34;5083964;28;61770;-80
2022/04/23 00:55:22;;;;;;;;;17.75;13.75;;;;;-146.67;100.00;57155.34;5083930;28;61770;-80
2022/04/23 00:57:48;;;;;;;;;16.50;14.75;;;;;-146.67;100.00;57155.34;5083122;28;62040;-80
2022/04/23 01:00:14;;;;;;;;;18.75;12.50;;;;;-146.67;100.00;57155.34;5083673;28;61968;-80
2022/04/23 01:02:40;;;;;;;;;15.75;15.50;;;;;-146.67;100.00;57155.34;5083678;28;61813;-80
2022/04/23 01:05:08;;;;;;;;;17.75;14.00;;;;;-146.67;100.00;57155.34;5083719;28;61830;-81
2022/04/23 01:07:39;;;;;;;;;24.00;11.00;;;;;-146.67;100.00;57155.34;5082223;28;62415;-80
2022/04/23 01:10:08;;;;;;;;;19.00;14.50;;;;;-146.67;100.00;57155.34;5083664;28;61742;-81
2022/04/23 01:12:38;;;;;;;;;17.75;12.75;;;;;-146.67;100.00;57155.34;5099164;27;62033;-80
2022/04/23 01:15:04;;;;;;;;;15.25;15.25;;;;;-146.67;100.00;57155.34;5083546;28;62295;-80
2022/04/23 01:17:29;;;;;;;;;14.50;13.00;;;;;-146.67;100.00;57155.34;5082591;28;62670;-80
2022/04/23 01:19:55;;;;;;;;;20.50;13.00;;;;;-146.67;100.00;57155.34;5083497;28;62063;-81
2022/04/23 01:22:23;;;;;;;;;14.50;13.25;;;;;-146.67;100.00;57155.34;5099041;27;61966;-80
2022/04/23 01:24:51;;;;;;;;;18.75;15.00;;;;;-146.67;100.00;57155.34;5083265;28;61675;-79
2022/04/23 01:27:17;;;;;;;;;16.00;14.00;;;;;-146.67;100.00;57155.34;5082559;28;61746;-80
2022/04/23 01:29:42;;;;;;;;;12.50;11.75;;;;;-146.67;100.00;57155.34;5099170;27;62251;-81
2022/04/23 01:32:09;;;;;;;;;18.00;13.50;;;;;-146.67;100.00;57155.34;5099048;27;62287;-81
2022/04/23 01:34:34;;;;;;;;;12.75;12.75;;;;;-146.67;100.00;57155.34;5098951;27;62211;-80
2022/04/23 01:36:59;;;;;;;;;13.75;11.00;;;;;-146.67;100.00;57155.34;5082656;28;61888;-80
2022/04/23 01:39:25;;;;;;;;;15.50;12.75;;;;;-146.67;100.00;57155.34;5082603;28;61929;-79
2022/04/23 01:41:50;;;;;;;;;22.75;18.75;;;;;-146.67;100.00;57155.34;5098993;27;62017;-80
2022/04/23 01:44:16;;;;;;;;;13.75;13.00;;;;;-146.67;100.00;57155.34;5083386;28;61962;-80
2022/04/23 01:46:41;;;;;;;;;14.00;12.00;;;;;-146.67;100.00;57155.34;5082524;28;62239;-80
2022/04/23 01:49:07;;;;;;;;;16.25;12.25;;;;;-146.67;100.00;57155.34;5098628;27;62134;-80
2022/04/23 01:51:33;;;;;;;;;13.50;9.25;;;;;-146.67;100.00;57155.34;5098382;27;62068;-80
2022/04/23 01:53:58;;;;;;;;;17.50;13.50;;;;;-146.67;100.00;57155.34;5082981;27;61782;-79
2022/04/23 01:56:24;;;;;;;;;21.50;14.50;;;;;-146.67;100.00;57155.34;5082055;28;62740;-80
2022/04/23 01:58:50;;;;;;;;;18.50;15.50;;;;;-146.67;100.00;57155.34;5082984;28;62139;-80
2022/04/23 02:01:16;;;;;;;;;17.25;17.25;;;;;-146.67;100.00;57155.34;5098500;27;62383;-80
2022/04/23 02:03:42;;;;;;;;;18.50;12.25;;;;;-146.67;100.00;57155.34;5098371;27;61998;-80
2022/04/23 02:06:07;;;;;;;;;14.25;13.25;;;;;-146.67;100.00;57155.34;5082179;28;61938;-80
2022/04/23 02:08:33;;;;;;;;;24.00;14.50;;;;;-146.67;100.00;57155.34;5086275;27;62351;-79
2022/04/23 02:10:58;;;;;;;;;17.00;11.00;;;;;-146.67;100.00;57155.34;5082786;28;61907;-80
2022/04/23 02:13:24;;;;;;;;;18.75;15.25;;;;;-146.67;100.00;57155.34;5082557;28;62004;-80
2022/04/23 02:15:50;;;;;;;;;17.50;14.75;;;;;-146.67;100.00;57155.34;5082183;28;62108;-80
2022/04/23 02:18:16;;;;;;;;;21.00;14.00;;;;;-146.67;100.00;57155.34;5081444;28;62017;-80
2022/04/23 02:20:42;;;;;;;;;16.75;14.50;;;;;-146.67;100.00;57155.34;5082463;28;62083;-81
2022/04/23 02:23:07;;;;;;;;;20.00;14.00;;;;;-146.67;100.00;57155.34;5082236;28;61857;-80
2022/04/23 02:25:36;;;;;;;;;15.50;10.75;;;;;-146.67;100.00;57155.34;5081586;28;61887;-80
2022/04/23 02:28:03;;;;;;;;;14.25;13.00;;;;;-146.67;100.00;57155.34;5082315;28;61908;-80
2022/04/23 02:30:30;;;;;;;;;20.50;15.75;;;;;-146.67;100.00;57155.34;5082232;28;61758;-80
2022/04/23 02:32:56;;;;;;;;;20.25;14.00;;;;;-146.67;100.00;57155.34;5082407;28;61806;-80
2022/04/23 02:35:21;;;;;;;;;16.00;11.50;;;;;-146.67;100.00;57155.34;5081797;28;62376;-80
2022/04/23 02:37:48;;;;;;;;;14.25;12.50;;;;;-146.67;100.00;57155.34;5097214;27;62156;-80
2022/04/23 02:40:15;;;;;;;;;14.25;13.50;;;;;-146.67;100.00;57155.34;5097926;27;62205;-80
2022/04/23 02:42:41;;;;;;;;;18.75;14.25;;;;;-146.67;100.00;57155.34;5082456;28;61981;-81
2022/04/23 02:45:08;;;;;;;;;17.75;15.50;;;;;-146.67;100.00;57155.34;5081826;28;61972;-80
2022/04/23 02:47:47;;;;;;;;;16.00;12.75;;;;;-146.67;100.00;57155.34;5081915;28;61977;-81
2022/04/23 02:50:13;;;;;;;;;19.00;14.50;;;;;-146.67;100.00;57155.34;5082234;28;61804;-81
2022/04/23 02:52:45;;;;;;;;;15.50;13.50;;;;;-146.67;100.00;57155.34;5097455;27;61797;-80
2022/04/23 02:55:11;;;;;;;;;15.50;12.00;;;;;-146.67;100.00;57155.34;5081548;28;61949;-80
2022/04/23 02:57:39;;;;;;;;;20.25;14.25;;;;;-146.67;100.00;57155.34;5081893;28;61899;-80
2022/04/23 03:00:06;;;;;;;;;19.50;12.75;;;;;-146.67;100.00;57155.34;5082147;28;61882;-80
2022/04/23 03:02:36;;;;;;;;;16.75;11.50;;;;;-146.67;100.00;57155.34;5082512;27;61937;-81
2022/04/23 03:05:08;;;;;;;;;18.50;13.25;;;;;-146.67;100.00;57155.34;5081203;28;62439;-81
2022/04/23 03:07:37;;;;;;;;;21.25;13.50;;;;;-146.67;100.00;57155.34;5094295;27;61885;-80
2022/04/23 03:10:07;;;;;;;;;9.75;8.25;;;;;-146.67;100.00;57155.34;5081855;28;61953;-80
2022/04/23 03:12:32;;;;;;;;;16.25;15.00;;;;;-146.67;100.00;57155.34;5082257;28;61852;-80
2022/04/23 03:14:58;;;;;;;;;14.00;14.00;;;;;-146.67;100.00;57155.34;5081002;28;62312;-80
2022/04/23 03:17:24;;;;;;;;;16.50;12.25;;;;;-146.67;100.00;57155.34;5080343;27;61802;-81
2022/04/23 03:19:49;;;;;;;;;13.50;9.75;;;;;-146.67;100.00;57155.34;5081504;28;61786;-81
2022/04/23 03:22:16;;;;;;;;;20.50;14.25;;;;;-146.67;100.00;57155.34;5081827;28;61834;-81
2022/04/23 03:24:42;;;;;;;;;16.25;14.75;;;;;-146.67;100.00;57155.34;5081087;28;62643;-81
2022/04/23 03:27:07;;;;;;;;;18.75;13.50;;;;;-146.67;100.00;57155.34;5097455;27;61829;-81
2022/04/23 03:29:34;;;;;;;;;19.00;12.75;;;;;-146.67;100.00;57155.34;5099040;27;62293;-81
2022/04/23 03:32:00;;;;;;;;;14.00;13.75;;;;;-146.67;100.00;57155.34;5100964;27;62064;-80
2022/04/23 03:34:26;;;;;;;;;19.50;15.75;;;;;-146.67;100.00;57155.34;5084347;27;61948;-81
2022/04/23 03:36:53;;;;;;;;;13.50;12.00;;;;;-146.67;100.00;57155.34;5084626;28;61680;-81
2022/04/23 03:39:19;;;;;;;;;17.75;14.25;;;;;-146.67;100.00;57155.34;5084983;28;62104;-80
2022/04/23 03:41:44;;;;;;;;;15.00;15.00;;;;;-146.67;100.00;57155.34;5084998;28;62114;-81
2022/04/23 03:44:10;;;;;;;;;15.00;14.75;;;;;-146.67;100.00;57155.34;5084478;28;62078;-81
2022/04/23 03:46:35;;;;;;;;;17.00;14.25;;;;;-146.67;100.00;57155.34;5084899;28;62013;-81
2022/04/23 03:49:01;;;;;;;;;16.00;15.00;;;;;-146.67;100.00;57155.34;5084525;28;62042;-80
2022/04/23 03:51:26;;;;;;;;;16.00;12.25;;;;;-146.67;100.00;57155.34;5084890;27;61883;-81
2022/04/23 03:53:52;;;;;;;;;12.50;11.00;;;;;-146.67;100.00;57155.34;5099792;27;63575;-81
2022/04/23 03:56:18;;;;;;;;;17.75;14.75;;;;;-146.67;100.00;57155.34;5084721;28;62113;-81
2022/04/23 03:58:44;;;;;;;;;18.75;13.25;;;;;-146.67;100.00;57155.34;5085009;28;62088;-81
2022/04/23 04:01:09;;;;;;;;;19.50;16.75;;;;;-146.67;100.00;57155.34;5084782;28;61787;-80
2022/04/23 04:03:35;;;;;;;;;17.25;15.00;;;;;-146.67;100.00;57155.34;5083859;28;62378;-80
2022/04/23 04:06:00;;;;;;;;;21.25;12.50;;;;;-146.67;100.00;57155.34;5084319;28;61688;-80
2022/04/23 04:08:26;;;;;;;;;19.75;15.25;;;;;-146.67;100.00;57155.34;5083940;27;62193;-80
2022/04/23 04:10:51;;;;;;;;;19.25;16.00;;;;;-146.67;100.00;57155.34;5084642;28;62362;-80
2022/04/23 04:13:18;;;;;;;;;25.00;17.50;;;;;-146.67;100.00;57155.34;5099767;27;63740;-80
2022/04/23 04:15:45;;;;;;;;;24.00;16.00;;;;;-146.67;100.00;57155.34;5084303;28;61885;-80
2022/04/23 04:18:12;;;;;;;;;24.75;19.25;;;;;-146.67;100.00;57155.34;5099999;27;61905;-79
2022/04/23 04:20:39;;;;;;;;;18.00;15.50;;;;;-146.67;100.00;57155.34;5084662;28;61925;-79
2022/04/23 04:23:08;;;;;;;;;20.25;14.75;;;;;-146.67;100.00;57155.34;5099133;27;63822;-79
2022/04/23 04:25:34;;;;;;;;;17.50;15.25;;;;;-146.67;100.00;57155.34;5084438;28;61747;-80
2022/04/23 04:28:01;;;;;;;;;22.25;14.25;;;;;-146.67;100.00;57155.34;5100013;27;61983;-80
2022/04/23 04:30:26;;;;;;;;;23.00;18.00;;;;;-146.67;100.00;57155.34;5084431;28;61887;-79
2022/04/23 04:32:52;;;;;;;;;9.00;8.00;;;;;-146.67;100.00;57155.34;5083498;28;61816;-79
2022/04/23 04:35:17;;;;;;;;;15.00;13.75;;;;;-146.67;100.00;57155.34;5083891;28;61951;-80
2022/04/23 04:37:44;;;;;;;;;20.50;15.00;;;;;-146.67;100.00;57155.34;5099628;27;61963;-79
2022/04/23 04:40:11;;;;;;;;;16.50;13.50;;;;;-146.67;100.00;57155.34;5099456;27;61699;-80
2022/04/23 04:42:36;;;;;;;;;19.50;15.00;;;;;-146.67;100.00;57155.34;5083175;28;61855;-80
2022/04/23 04:45:03;;;;;;;;;13.50;11.50;;;;;-146.67;100.00;57155.34;5084090;28;62507;-80
2022/04/23 04:47:28;;;;;;;;;15.00;11.25;;;;;-146.67;100.00;57155.34;5099768;27;61908;-80
2022/04/23 04:49:55;;;;;;;;;15.25;7.50;;;;;-146.67;100.00;57155.34;5083305;28;61876;-80
2022/04/23 04:52:20;;;;;;;;;13.50;12.25;;;;;-146.67;100.00;57155.34;5105074;27;63796;-79
2022/04/23 04:54:46;;;;;;;;;11.00;11.00;;;;;-146.67;100.00;57155.34;5084457;28;61754;-79
2022/04/23 04:57:11;;;;;;;;;13.50;13.00;;;;;-146.67;100.00;57155.34;5082338;28;62009;-79
2022/04/23 04:59:37;;;;;;;;;16.25;8.25;;;;;-146.67;100.00;57155.34;5083900;28;61772;-80
2022/04/23 05:02:03;;;;;;;;;21.50;15.75;;;;;-146.67;100.00;57155.34;5083197;27;61740;-79
2022/04/23 05:04:29;;;;;;;;;17.75;11.00;;;;;-146.67;100.00;57155.34;5083387;28;61812;-79
2022/04/23 05:06:55;;;;;;;;;13.50;13.50;;;;;-146.67;100.00;57155.34;5099298;27;62769;-79
2022/04/23 05:09:21;;;;;;;;;15.50;15.25;;;;;-146.67;100.00;57155.34;5086734;27;61778;-80
2022/04/23 05:11:47;;;;;;;;;14.75;11.25;;;;;-146.67;100.00;57155.34;5083060;28;61969;-80
2022/04/23 05:14:12;;;;;;;;;15.00;10.50;;;;;-146.67;100.00;57155.34;5083348;27;61690;-80
2022/04/23 05:16:37;;;;;;;;;16.50;12.50;;;;;-146.67;100.00;57155.34;5083778;28;61905;-81
2022/04/23 05:19:03;;;;;;;;;19.00;14.50;;;;;-146.67;100.00;57155.34;5081905;28;62161;-80
2022/04/23 05:21:28;;;;;;;;;13.00;10.75;;;;;-146.67;100.00;57155.34;5082697;28;62763;-80
2022/04/23 05:23:54;;;;;;;;;18.50;11.00;;;;;-146.67;100.00;57155.34;5083524;28;61807;-80
2022/04/23 05:26:19;;;;;;;;;14.25;10.25;;;;;-146.67;100.00;57155.34;5098847;27;62071;-80
2022/04/23 05:28:45;;;;;;;;;13.50;9.25;;;;;-146.67;100.00;57155.34;5083760;28;62007;-80
2022/04/23 05:31:10;;;;;;;;;9.25;8.75;;;;;-146.67;100.00;57155.34;5098218;27;65252;-80
2022/04/23 05:33:36;;;;;;;;;18.50;15.00;;;;;-146.67;100.00;57155.34;5082887;28;61968;-79
2022/04/23 05:36:05;;;;;;;;;14.25;11.00;;;;;-146.67;100.00;57155.34;5083358;28;61887;-80
2022/04/23 05:38:31;;;;;;;;;13.00;11.00;;;;;-146.67;100.00;57155.34;5098510;27;62376;-80
2022/04/23 05:40:56;;;;;;;;;16.75;13.00;;;;;-146.67;100.00;57155.34;5082283;28;62191;-79
2022/04/23 05:43:22;;;;;;;;;12.00;11.25;;;;;-146.67;100.00;57155.34;5082684;27;61775;-80
2022/04/23 05:45:47;;;;;;;;;17.75;13.25;;;;;-146.67;100.00;57155.34;5083251;27;61682;-79
2022/04/23 05:48:13;;;;;;;;;17.00;10.75;;;;;-146.67;100.00;57155.34;5085418;27;62391;-76
2022/04/23 05:50:38;;;;;;;;;13.75;11.50;;;;;-146.67;100.00;57155.34;5072833;28;62001;-76
2022/04/23 05:53:04;;;;;;;;;13.00;10.25;;;;;-146.67;100.00;57155.34;5062674;28;61992;-76
2022/04/23 05:55:29;;;;;;;;;15.25;12.75;;;;;-146.67;100.00;57155.34;5062987;28;61746;-79
2022/04/23 05:57:54;;;;;;;;;16.75;14.25;;;;;-146.67;100.00;57155.34;5082069;27;62160;-79
2022/04/23 06:00:20;;;;;;;;;13.75;12.75;;;;;-146.67;100.00;57155.34;5081176;27;62219;-79
2022/04/23 06:02:46;;;;;;;;;19.50;13.25;;;;;-146.67;100.00;57155.34;5082039;27;61884;-79
2022/04/23 06:05:11;;;;;;;;;13.25;12.00;;;;;-146.67;100.00;57155.34;5081902;28;62009;-79
2022/04/23 06:07:37;;;;;;;;;13.25;11.50;;;;;-146.67;100.00;57155.34;5078713;28;62160;-79
2022/04/23 06:10:04;;;;;;;;;13.75;11.00;;;;;-146.67;100.00;57155.34;5088523;27;63859;-79
2022/04/23 06:12:31;;;;;;;;;17.00;14.75;;;;;-146.67;100.00;57155.34;5081894;27;61949;-79
2022/04/23 06:14:57;;;;;;;;;18.00;14.00;;;;;-146.67;100.00;57155.34;5094745;27;62022;-79
2022/04/23 06:17:24;;;;;;;;;17.50;16.50;;;;;-146.67;100.00;57155.34;5080756;27;62019;-79
2022/04/23 06:19:50;;;;;;;;;16.25;14.75;;;;;-146.67;100.00;57155.34;5080344;27;62841;-79
2022/04/23 06:22:16;;;;;;;;;18.50;12.75;;;;;-146.67;100.00;57155.34;5081984;27;61825;-79
2022/04/23 06:24:42;;;;;;;;;14.25;11.75;;;;;-146.67;100.00;57155.34;5097702;27;62005;-79
2022/04/23 06:27:07;;;;;;;;;17.25;15.50;;;;;-146.67;100.00;57155.34;5081970;28;61865;-79
2022/04/23 06:29:32;;;;;;;;;21.25;14.75;;;;;-146.67;100.00;57155.34;5080995;28;62552;-79
2022/04/23 06:31:58;;;;;;;;;19.00;14.25;;;;;-146.67;100.00;57155.34;5080605;28;61874;-78
2022/04/23 06:34:23;;;;;;;;;19.25;14.00;;;;;-146.67;100.00;57155.34;5082087;27;61905;-78
2022/04/23 06:36:49;;;;;;;;;14.50;14.50;;;;;-146.67;100.00;57155.34;5082287;27;61802;-78
2022/04/23 06:39:14;;;;;;;;;26.00;14.50;;;;;-146.67;100.00;57155.34;5097240;27;63597;-78
2022/04/23 06:41:40;;;;;;;;;15.00;12.00;;;;;-146.67;100.00;57155.34;5082105;28;61961;-78
2022/04/23 06:44:05;;;;;;;;;15.25;12.50;;;;;-146.67;100.00;57155.34;5082269;27;61803;-77
2022/04/23 06:46:30;;;;;;;;;14.50;11.50;;;;;-146.67;100.00;57155.34;5082255;27;62148;-78
2022/04/23 06:48:56;;;;;;;;;18.25;14.50;;;;;-146.67;100.00;57155.34;5081210;27;62659;-80
2022/04/23 06:51:22;;;;;;;;;17.75;14.25;;;;;-146.67;100.00;57155.34;5097754;27;61734;-80
2022/04/23 06:53:48;;;;;;;;;19.00;13.00;;;;;-146.67;100.00;57155.34;5081977;27;61742;-80
2022/04/23 06:56:13;;;;;;;;;20.50;14.25;;;;;-146.67;100.00;57155.34;5082188;27;61942;-81
2022/04/23 06:58:46;;;;;;;;;19.75;12.25;;;;;-146.67;100.00;57155.34;5071811;27;61841;-79
2022/04/23 07:01:11;;;;;;;;;12.50;10.00;;;;;-146.67;100.00;57155.34;5077139;28;62092;-80
2022/04/23 07:03:36;;;;;;;;;15.50;13.00;;;;;-146.67;100.00;57155.34;5078533;28;61839;-81
2022/04/23 07:06:03;;;;;;;;;15.00;14.50;;;;;-146.67;100.00;57155.34;5094860;27;62048;-80
2022/04/23 07:08:29;;;;;;;;;14.75;14.75;;;;;-146.67;100.00;57155.34;5081398;27;62111;-81
2022/04/23 07:10:54;;;;;;;;;21.25;18.00;;;;;-146.67;100.00;57155.34;5083853;28;61859;-81
2022/04/23 07:13:20;;;;;;;;;20.00;14.25;;;;;-146.67;100.00;57155.34;5098113;27;61909;-81
2022/04/23 07:15:46;;;;;;;;;13.25;12.50;;;;;-146.67;100.00;57155.34;5100381;27;61885;-81
2022/04/23 07:18:11;;;;;;;;;15.00;11.50;;;;;-146.67;100.00;57155.34;5084215;27;62051;-81
2022/04/23 07:20:39;;;;;;;;;12.75;12.75;;;;;-146.67;100.00;57155.34;5084563;27;61805;-82
2022/04/23 07:25:50;;;;;;;;;16.00;12.50;;;;;-146.67;100.00;57155.34;5084449;28;61988;-81
2022/04/23 07:28:16;;;;;;;;;17.50;14.75;;;;;-146.67;100.00;57155.34;5085922;28;61792;-82
2022/04/23 07:30:42;;;;;;;;;19.25;16.00;;;;;-146.67;100.00;57155.34;5084816;28;61849;-83
2022/04/23 07:33:08;;;;;;;;;16.75;13.00;;;;;-146.67;100.00;57155.34;5101426;27;62061;-80
2022/04/23 07:38:20;;;;;;;;;18.00;16.00;;;;;-146.67;100.00;57155.34;5083911;28;61747;-78
2022/04/23 07:40:50;;;;;;;;;15.75;12.00;;;;;-146.67;100.00;57155.34;5100189;27;61967;-78
2022/04/23 07:43:16;;;;;;;;;18.00;13.50;;;;;-146.67;100.00;57155.34;5083111;28;61981;-78
2022/04/23 07:45:44;;;;;;;;;21.25;16.75;;;;;-146.67;100.00;57155.34;5084537;27;62003;-77
2022/04/23 07:48:11;;;;;;;;;14.25;13.00;;;;;-146.67;100.00;57155.34;5083777;27;62652;-77
2022/04/23 07:50:38;;;;;;;;;19.25;16.00;;;;;-146.67;100.00;57155.34;5084246;27;62067;-77
2022/04/23 07:53:07;;;;;;;;;13.00;11.75;;;;;-146.67;100.00;57155.34;5098852;27;62132;-79
2022/04/23 07:55:35;;;;;;;;;19.00;13.25;;;;;-146.67;100.00;57155.34;5079006;28;61932;-77
2022/04/23 07:58:04;;;;;;;;;19.75;15.25;;;;;-146.67;100.00;57155.34;5110932;27;63967;-77
2022/04/23 08:00:38;;;;;;;;;15.00;13.00;;;;;-146.67;100.00;57155.34;5081490;27;61798;-78
2022/04/23 08:03:04;;;;;;;;;18.25;12.50;;;;;-146.67;100.00;57155.34;5078528;27;62415;-77
2022/04/23 08:05:31;;;;;;;;;19.75;15.50;;;;;-146.67;100.00;57155.34;5079658;28;62219;-77
2022/04/23 08:07:56;;;;;;;;;13.50;13.25;;;;;-146.67;100.00;57155.34;5062670;28;62031;-78
2022/04/23 08:10:22;;;;;;;;;23.25;14.50;;;;;-146.67;100.00;57155.34;5082497;28;61926;-78
2022/04/23 08:12:47;;;;;;;;;18.00;15.50;;;;;-146.67;100.00;57155.34;5083851;28;61882;-77
2022/04/23 08:15:13;;;;;;;;;18.25;14.75;;;;;-146.67;100.00;57155.34;5098839;27;62061;-78
2022/04/23 08:17:39;;;;;;;;;17.75;15.75;;;;;-146.67;100.00;57155.34;5083194;28;61862;-76
2022/04/23 08:20:06;;;;;;;;;17.50;14.50;;;;;-146.67;100.00;57155.34;5082628;28;61920;-77
2022/04/23 08:22:31;;;;;;;;;13.50;12.00;;;;;-146.67;100.00;57155.34;5082084;28;61834;-75
2022/04/23 08:24:57;;;;;;;;;12.00;11.75;;;;;-146.67;100.00;57155.34;5083576;27;62406;-75
2022/04/23 08:27:22;;;;;;;;;19.00;17.00;;;;;-146.67;100.00;57155.34;5081840;28;63610;-77
2022/04/23 08:32:33;;;;;;;;;17.25;15.00;;;;;-146.67;100.00;57155.34;5081613;28;61895;-76
2022/04/23 08:34:59;;;;;;;;;17.25;17.25;;;;;-146.67;100.00;57155.34;5083372;27;61793;-82
2022/04/23 08:37:25;;;;;;;;;17.75;16.50;;;;;-146.67;100.00;57155.34;5090818;27;63418;-79
2022/04/23 08:39:50;;;;;;;;;18.75;15.25;;;;;-146.67;100.00;57155.34;5098421;27;61921;-77
2022/04/23 08:42:17;;;;;;;;;17.25;17.00;;;;;-146.67;100.00;57155.34;5083215;27;61881;-77
2022/04/23 08:44:43;;;;;;;;;15.75;14.50;;;;;-146.67;100.00;57155.34;5093628;27;62288;-77
2022/04/23 08:47:11;;;;;;;;;24.00;17.25;;;;;-146.67;100.00;57155.34;5083093;28;61822;-78
2022/04/23 08:49:42;;;;;;;;;19.25;16.00;;;;;-146.67;100.00;57155.34;5083462;27;62051;-77
2022/04/23 08:52:25;;;;;;;;;19.75;14.25;;;;;-146.67;100.00;57155.34;5083607;27;61900;-78
2022/04/23 08:54:53;;;;;;;;;22.00;17.00;;;;;-146.67;100.00;57155.34;5083323;27;61890;-80
2022/04/23 08:57:19;;;;;;;;;17.25;12.25;;;;;-146.67;100.00;57155.34;5079826;28;62326;-79
2022/04/23 08:59:51;;;;;;;;;18.00;14.75;;;;;-146.67;100.00;57155.34;5082182;27;61903;-78
2022/04/23 09:02:17;;;;;;;;;19.75;17.00;;;;;-146.67;100.00;57155.34;5098535;27;61891;-79
2022/04/23 09:04:43;;;;;;;;;16.00;14.25;;;;;-146.67;100.00;57155.34;5095841;27;62037;-78
2022/04/23 09:07:19;;;;;;;;;17.25;13.75;;;;;-146.67;100.00;57155.34;5061462;28;62853;-78
2022/04/23 09:09:50;;;;;;;;;17.25;16.00;;;;;-146.67;100.00;57155.34;5075852;28;62161;-79
2022/04/23 09:12:17;;;;;;;;;26.25;20.75;;;;;-146.67;100.00;57155.34;5106478;27;61707;-79
2022/04/23 09:14:45;;;;;;;;;13.50;11.75;;;;;-146.67;100.00;57155.34;5078931;28;62079;-79
2022/04/23 09:25:35;;;;;;;;;16.25;14.75;;;;;-146.67;100.00;57155.34;5083118;28;61799;-79
2022/04/23 09:28:24;;;;;;;;;18.75;15.00;;;;;-146.67;100.00;57155.34;5097881;27;62890;-80
2022/04/23 09:30:51;;;;;;;;;16.25;12.00;;;;;-146.67;100.00;57155.34;5082967;27;61901;-79
2022/04/23 09:33:27;;;;;;;;;26.25;18.50;;;;;-146.67;100.00;57155.34;5098455;27;62068;-80
2022/04/23 09:36:02;;;;;;;;;21.50;15.00;;;;;-146.67;100.00;57155.34;5097694;27;62244;-80
2022/04/23 09:38:28;;;;;;;;;16.25;15.50;;;;;-146.67;100.00;57155.34;5097131;27;63410;-78
2022/04/23 09:40:55;;;;;;;;;16.50;14.00;;;;;-146.67;100.00;57155.34;5081485;28;61911;-80
2022/04/23 09:43:29;;;;;;;;;19.25;18.25;;;;;-146.67;100.00;57155.34;5098459;27;61967;-79
2022/04/23 09:46:09;;;;;;;;;20.25;13.50;;;;;-146.67;100.00;57155.34;5083080;27;61913;-79
2022/04/23 09:48:37;;;;;;;;;19.25;17.50;;;;;-146.67;100.00;57155.34;5080504;28;62504;-80
2022/04/23 09:51:03;;;;;;;;;18.00;13.50;;;;;-146.67;100.00;57155.34;5098146;27;61988;-79
2022/04/23 09:53:28;;;;;;;;;14.50;13.50;;;;;-146.67;100.00;57155.34;5082313;27;61779;-79
2022/04/23 09:56:05;;;;;;;;;13.75;13.75;;;;;-146.67;100.00;57155.34;5098498;27;62001;-78
2022/04/23 09:58:33;;;;;;;;;18.50;15.00;;;;;-146.67;100.00;57155.34;5097502;27;62771;-78
2022/04/23 10:00:59;;;;;;;;;21.75;15.50;;;;;-146.67;100.00;57155.34;5082183;27;61790;-80
2022/04/23 10:03:32;;;;;;;;;19.75;17.75;;;;;-146.67;100.00;57155.34;5080498;28;61906;-79
2022/04/23 10:06:00;;;;;;;;;12.25;12.00;;;;;-146.67;100.00;57155.34;5061114;28;61946;-78
2022/04/23 10:08:27;;;;;;;;;16.25;13.25;;;;;-146.67;100.00;57155.34;5079591;28;61769;-79
2022/04/23 10:11:14;;;;;;;;;14.25;12.25;;;;;-146.67;100.00;57155.34;5081921;27;61964;-79
2022/04/23 10:13:46;;;;;;;;;15.75;14.25;;;;;-146.67;100.00;57155.34;5078761;28;61868;-78
2022/04/23 10:16:14;;;;;;;;;18.00;11.50;;;;;-146.67;100.00;57155.34;5081977;27;61956;-79
2022/04/23 10:18:40;;;;;;;;;15.25;13.50;;;;;-146.67;100.00;57155.34;5094776;27;63630;-79
2022/04/23 10:21:08;;;;;;;;;16.75;14.75;;;;;-146.67;100.00;57155.34;5077486;27;62348;-79
2022/04/23 10:24:02;;;;;;;;;18.50;17.25;;;;;-146.67;100.00;57155.34;5078443;28;62309;-83
2022/04/23 10:26:45;;;;;;;;;17.25;16.75;;;;;-146.67;100.00;57155.34;5080970;28;62116;-82
2022/04/23 10:29:16;;;;;;;;;18.75;14.75;;;;;-146.67;100.00;57155.34;5093175;27;63769;-80
2022/04/23 10:31:42;;;;;;;;;19.75;18.00;;;;;-146.67;100.00;57155.34;5096435;27;61711;-80
2022/04/23 10:34:31;;;;;;;;;17.00;15.00;;;;;-146.67;100.00;57155.34;5080907;27;61808;-82
2022/04/23 10:37:22;;;;;;;;;21.25;18.25;;;;;-146.67;100.00;57155.34;5081366;28;61791;-78
2022/04/23 10:39:50;;;;;;;;;18.25;16.00;;;;;-146.67;100.00;57155.34;5080019;28;62046;-77
2022/04/23 10:42:17;;;;;;;;;18.00;14.50;;;;;-146.67;100.00;57155.34;5081897;27;61963;-79
2022/04/23 10:44:44;;;;;;;;;11.25;11.25;;;;;-146.67;100.00;57155.34;5097623;27;61911;-81
2022/04/23 10:47:17;;;;;;;;;15.00;12.00;;;;;-146.67;100.00;57155.34;5097604;27;62120;-77
2022/04/23 10:49:43;;;;;;;;;15.75;14.50;;;;;-146.67;100.00;57155.34;5080159;27;61816;-77
2022/04/23 10:52:08;;;;;;;;;17.00;12.50;;;;;-146.67;100.00;57155.34;5078844;28;61938;-78
2022/04/23 10:54:38;;;;;;;;;16.00;12.25;;;;;-146.67;100.00;57155.34;5091248;27;61932;-82
2022/04/23 10:57:07;;;;;;;;;15.75;14.00;;;;;-146.67;100.00;57155.34;5079416;27;62305;-79
2022/04/23 10:59:34;;;;;;;;;20.00;14.00;;;;;-146.67;100.00;57155.34;5095754;27;63774;-78
2022/04/23 11:02:06;;;;;;;;;13.75;11.75;;;;;-146.67;100.00;57155.34;5080988;27;62101;-84
2022/04/23 11:04:34;;;;;;;;;13.75;11.25;;;;;-146.67;100.00;57155.34;5095809;27;61995;-78
2022/04/23 11:12:36;;;;;;;;;15.25;13.75;;;;;-146.67;100.00;57155.34;5080668;28;61851;-78
2022/04/23 11:15:13;;;;;;;;;19.25;12.50;;;;;-146.67;100.00;57155.34;5081124;27;62044;-79
2022/04/23 11:17:38;;;;;;;;;16.00;14.25;;;;;-146.67;100.00;57155.34;5080764;27;61886;-79